Cincinnati West (I67)

 

Airport Diagram
No Airport Diagram Available
Current Weather/Forecast (VFR Conditions)
METAR KI67 071315Z AUTO 26003KT 10SM SCT010 BKN080 07/05 A3006 RMK AO1
TAF

Airport Information

All Charts
General
Chart Name View
TAKEOFF MINIMUMS

Approaches
Chart Name Download
RNAV (GPS) RWY 19
VOR RWY 19


Airport Statistics
Departures Arrivals Local
All Collected Stats since June 2016: 14 4 7
2021 Stats: 6 0 0
May Stats: 0 0 0

Inbound Traffic (Arrivals) - 0

No inbound traffic.


Outbound Traffic (Departures) - 0

No outbound traffic.


Local Traffic (Pattern) - 0

No local traffic.